• Join FlightAware (Why Join?)
  • Login
  • US Flag 
03:37AM EST


 

Airport Tracker/Info


-or-


 

Live Flight TrackerFlight Track Log ✈ JBU881 ✈ 06-May-2013 ✈ KJFK - TNCA / AUA

Flight Track Log - Related Links

Times and Time Zones

All times are in EDT time to prevent confusion due to time zone crossing. See the JBU881 flight status page for this flight to view local times or setup timezone preferences in your user account.

Time Position Orientation Groundspeed Altitude Reporting Facility
EDT Latitude Longitude Course Direction KTS MPH feet Rate Location/Type
07:26AM 40.6500 -73.7167 128° Southeast 188 216 2,200  Level New York TRACON
07:28AM 40.4439 -73.4342 128° Southeast  Level FlightAware Approximate
07:28AM 40.5744 -73.5633 123° Southeast 260 299 6,900  Level New York Center
07:29AM 40.3681 -73.3105 131° Southeast  Level FlightAware Approximate
07:29AM 40.5200 -73.4931 136° Southeast 273 314 9,500  Level New York Center
07:30AM 40.2903 -73.1892 128° Southeast  Level FlightAware Approximate
07:30AM 40.4592 -73.4142 135° Southeast 301 346 11,100  Level New York Center
07:31AM 40.2158 -73.0645 128° Southeast  Level FlightAware Approximate
07:31AM 40.3903 -73.3269 136° Southeast 331 381 13,000  Level New York Center
07:32AM 40.1411 -72.9401 128° Southeast  Level FlightAware Approximate
07:32AM 40.3194 -73.2319 134° Southeast 356 410 15,200  Level New York Center
07:33AM 40.2550 -73.1236 128° Southeast 362 417 16,900 1,620 Climbing New York Center
07:34AM 40.1906 -73.0125 127° Southeast 379 436 18,500 1,680 Climbing New York Center
07:35AM 40.1217 -72.8992 128° Southeast 391 450 20,300 1,500 Climbing New York Center
07:36AM 40.0528 -72.7858 128° Southeast 397 457 21,500 1,200 Climbing New York Center
07:37AM 39.9819 -72.6672 128° Southeast 403 464 22,800 1,140 Climbing New York Center
07:38AM 39.9108 -72.5461 127° Southeast 408 470 23,800 900 Climbing New York Center
07:39AM 39.8272 -72.4278 133° Southeast 421 484 24,700 900 Climbing New York Center
07:40AM 39.7006 -72.4031 171° South 422 486 25,700 780 Climbing New York Center
07:41AM 39.5711 -72.4056 181° South 448 516 26,300 780 Climbing New York Center
07:42AM 39.4358 -72.4022 179° South 468 539 27,300 960 Climbing New York Center
07:43AM 39.3022 -72.4047 181° South 479 551 28,300 1,080 Climbing New York Center
07:44AM 39.1647 -72.3986 178° South 484 557 29,500 1,080 Climbing New York Center
07:45AM 39.0314 -72.4008 181° South 484 557 30,500 900 Climbing New York Center
07:46AM 38.8958 -72.3950 178° South 484 557 31,400 900 Climbing New York Center
07:47AM 38.7583 -72.3919 179° South 489 563 32,300 1,140 Climbing New York Center
07:48AM 38.6267 -72.3969 182° South 489 563 33,700 1,080 Climbing New York Center
07:49AM 38.4956 -72.3858 176° South 483 556 34,500 600 Climbing New York Center
07:50AM 38.3661 -72.3883 181° South 473 544 34,900 120 Climbing New York Center
07:52AM 38.2362 -72.3827 178° South  Level FlightAware Approximate
07:52AM 38.1117 -72.3878 178° South 468 539 34,900  Level New York Center
07:53AM 37.9825 -72.3850 179° South 463 533 35,000  Climbing New York Center
07:54AM 37.8489 -72.3872 181° South 463 533 35,000 -60 Level New York Center
07:55AM 37.7175 -72.3894 181° South 468 539 34,900  Descending New York Center
07:57AM 37.5856 -72.3886 180° South  Level FlightAware Approximate
07:58AM 37.3400 -72.3917 180° South 460 529 35,000  Level New York Center
07:59AM 37.2128 -72.3939 181° South 465 535 34,900 -60 Descending New York Center
08:00AM 37.0811 -72.3936 180° South 465 535 34,900  Level New York Center
08:01AM 36.9581 -72.3936 180° South 458 527 34,900  Level New York Center
08:02AM 36.8372 -72.3961 181° South 452 520 34,900  Level New York Center
08:03AM 36.7078 -72.3958 180° South 459 528 35,000  Climbing New York Center
08:04AM 36.7587 -72.3834 180° South  Level FlightAware Approximate
08:04AM 36.5806 -72.3983 181° South 459 528 35,000  Level New York Center
08:06AM 36.4506 -72.3986 180° South  Level FlightAware Approximate
08:06AM 36.3239 -72.4006 180° South 459 528 34,900  Level New York Center
08:07AM 36.2028 -72.4003 180° South 459 528 35,000  Climbing New York Center
08:08AM 36.0797 -72.4028 181° South 459 528 35,000 -60 Level New York Center
08:09AM 35.9544 -72.4028 180° South 459 528 34,900 300 Descending New York Center
08:10AM 35.8292 -72.4053 181° South 454 522 35,700 480 Climbing New York Center
08:12AM 35.6998 -72.4021 179° South  Level FlightAware Approximate
08:12AM 35.5831 -72.4075 179° South 452 520 36,400  Level New York Center
08:13AM 35.4622 -72.4050 179° South 438 504 36,800 240 Climbing New York Center
08:14AM 35.3369 -72.4100 182° South 443 510 36,900  Climbing New York Center
08:15AM 35.2097 -72.4097 180° South 443 510 36,900  Level New York Center
08:16AM 35.0844 -72.4147 182° South 443 510 36,900  Level New York Center
08:18AM 34.9558 -72.3918 175° South  Level FlightAware Approximate
08:18AM 34.8403 -72.4222 175° South 443 510 36,900  Level New York Center
08:19AM 34.7172 -72.4169 175° South 438 504 36,900 60 Level New York Center
08:19AM 35.0500 -72.4167 175° South 424 488 37,000  Climbing New York Oceanic (ODAPS)
08:22AM 34.4777 -72.3453 176° South  Level FlightAware Approximate
08:26AM 33.9833 -72.3000 167° South 434 499 37,000  Level New York Oceanic (ODAPS)
08:29AM 33.6669 -72.2152 167° South  Level FlightAware Approximate
08:30AM 33.5528 -72.1831 167° South  Level FlightAware Approximate
08:31AM 33.4388 -72.1511 167° South  Level FlightAware Approximate
08:32AM 33.3246 -72.1191 167° South  Level FlightAware Approximate
08:33AM 33.1568 -72.0756 167° South 434 499 37,000  Level FlightAware Transoceanic
08:34AM 33.0387 -72.0439 167° South 434 499 37,000  Level FlightAware Transoceanic
08:35AM 32.9205 -72.0122 167° South 434 499 37,000  Level FlightAware Transoceanic
08:36AM 32.8024 -71.9807 167° South 434 499 37,000  Level FlightAware Transoceanic
08:37AM 32.6843 -71.9492 167° South 434 499 37,000  Level FlightAware Transoceanic
08:38AM 32.5661 -71.9178 167° South 434 499 37,000  Level FlightAware Transoceanic
08:39AM 32.4480 -71.8866 167° South 434 499 37,000  Level FlightAware Transoceanic
08:40AM 32.3298 -71.8553 167° South 434 499 37,000  Level FlightAware Transoceanic
08:41AM 32.2116 -71.8242 167° South 434 499 37,000  Level FlightAware Transoceanic
08:42AM 32.0934 -71.7932 167° South 434 499 37,000  Level FlightAware Transoceanic
08:43AM 31.9753 -71.7622 167° South 434 499 37,000  Level FlightAware Transoceanic
08:44AM 31.8571 -71.7313 167° South 434 499 37,000  Level FlightAware Transoceanic
08:45AM 31.7389 -71.7005 168° South 434 499 37,000  Level FlightAware Transoceanic
08:46AM 31.6207 -71.6697 168° South 434 499 37,000  Level FlightAware Transoceanic
08:47AM 31.5025 -71.6391 168° South 434 499 37,000  Level FlightAware Transoceanic
08:48AM 31.3842 -71.6085 168° South 434 499 37,000  Level FlightAware Transoceanic
08:49AM 31.2660 -71.5780 168° South 434 499 37,000  Level FlightAware Transoceanic
08:50AM 31.1478 -71.5476 168° South 434 499 37,000  Level FlightAware Transoceanic
08:51AM 31.0295 -71.5172 168° South 434 499 37,000  Level FlightAware Transoceanic
08:52AM 30.9113 -71.4870 168° South 434 499 37,000  Level FlightAware Transoceanic
08:53AM 30.7930 -71.4568 168° South 434 499 37,000  Level FlightAware Transoceanic
08:54AM 30.6748 -71.4267 168° South 434 499 37,000  Level FlightAware Transoceanic
08:55AM 30.5565 -71.3966 168° South 434 499 37,000  Level FlightAware Transoceanic
08:56AM 30.4382 -71.3666 168° South 434 499 37,000  Level FlightAware Transoceanic
08:57AM 30.3199 -71.3367 168° South 434 499 37,000  Level FlightAware Transoceanic
08:58AM 30.2016 -71.3069 168° South 434 499 37,000  Level FlightAware Transoceanic
08:59AM 30.0833 -71.2771 168° South 434 499 37,000  Level FlightAware Transoceanic
09:00AM 29.9650 -71.2474 168° South 434 499 37,000  Level FlightAware Transoceanic
09:01AM 29.8467 -71.2178 168° South 434 499 37,000  Level FlightAware Transoceanic
09:02AM 29.7284 -71.1883 168° South 434 499 37,000  Level FlightAware Transoceanic
09:03AM 29.6101 -71.1588 168° South 434 499 37,000  Level FlightAware Transoceanic
09:04AM 29.4918 -71.1294 168° South 434 499 37,000  Level FlightAware Transoceanic
09:05AM 29.3734 -71.1000 168° South 434 499 37,000  Level FlightAware Transoceanic
09:06AM 29.2551 -71.0707 168° South 434 499 37,000  Level FlightAware Transoceanic
09:07AM 29.1367 -71.0415 168° South 434 499 37,000  Level FlightAware Transoceanic
09:08AM 29.0184 -71.0124 168° South 434 499 37,000  Level FlightAware Transoceanic
09:09AM 28.9000 -70.9833 168° South 434 499 37,000  Level FlightAware Transoceanic
09:10AM 28.7854 -70.9549 168° South 434 499 37,000  Level FlightAware Transoceanic
09:11AM 28.6708 -70.9266 168° South 434 499 37,000  Level FlightAware Transoceanic
09:11AM 28.9000 -70.9833 168° South 461 531 37,000  Level New York Oceanic (ODAPS)
09:12AM 28.5561 -70.8983 168° South 434 499 37,000  Level FlightAware Transoceanic
09:13AM 28.4415 -70.8701 168° South 434 499 37,000  Level FlightAware Transoceanic
09:14AM 28.3269 -70.8419 168° South 434 499 37,000  Level FlightAware Transoceanic
09:15AM 28.2122 -70.8138 168° South 434 499 37,000  Level FlightAware Transoceanic
09:16AM 28.0976 -70.7858 168° South 434 499 37,000  Level FlightAware Transoceanic
09:17AM 27.8941 -70.7362 168° South 461 531 37,000  Level FlightAware Transoceanic
09:18AM 27.7684 -70.7056 168° South 461 531 37,000  Level FlightAware Transoceanic
09:19AM 27.6426 -70.6751 168° South 461 531 37,000  Level FlightAware Transoceanic
09:20AM 27.5168 -70.6447 168° South 461 531 37,000  Level FlightAware Transoceanic
09:21AM 27.3911 -70.6143 168° South 461 531 37,000  Level FlightAware Transoceanic
09:22AM 27.2653 -70.5840 168° South 461 531 37,000  Level FlightAware Transoceanic
09:23AM 27.1395 -70.5538 168° South 461 531 37,000  Level FlightAware Transoceanic
09:24AM 27.0137 -70.5236 168° South 461 531 37,000  Level FlightAware Transoceanic
09:25AM 26.8879 -70.4936 168° South 461 531 37,000  Level FlightAware Transoceanic
09:26AM 26.7621 -70.4635 168° South 461 531 37,000  Level FlightAware Transoceanic
09:27AM 26.6362 -70.4336 168° South 461 531 37,000  Level FlightAware Transoceanic
09:28AM 26.5104 -70.4037 168° South 461 531 37,000  Level FlightAware Transoceanic
09:29AM 26.3846 -70.3739 168° South 461 531 37,000  Level FlightAware Transoceanic
09:30AM 26.2587 -70.3441 168° South 461 531 37,000  Level FlightAware Transoceanic
09:31AM 26.1329 -70.3144 168° South 461 531 37,000  Level FlightAware Transoceanic
09:32AM 26.0070 -70.2848 168° South 461 531 37,000  Level FlightAware Transoceanic
09:33AM 25.8812 -70.2552 168° South 461 531 37,000  Level FlightAware Transoceanic
09:34AM 25.7553 -70.2257 168° South 461 531 37,000  Level FlightAware Transoceanic
09:35AM 25.6294 -70.1963 168° South 461 531 37,000  Level FlightAware Transoceanic
09:36AM 25.5036 -70.1669 168° South 461 531 37,000  Level FlightAware Transoceanic
09:37AM 25.3777 -70.1376 168° South 461 531 37,000  Level FlightAware Transoceanic
09:38AM 25.2518 -70.1083 168° South 461 531 37,000  Level FlightAware Transoceanic
09:39AM 25.1259 -70.0791 168° South 461 531 37,000  Level FlightAware Transoceanic
09:40AM 25.0000 -70.0500 176° South 461 531 37,000  Level FlightAware Transoceanic
09:41AM 24.8828 -70.0417 176° South 461 531 37,000  Level FlightAware Transoceanic
09:42AM 24.7656 -70.0334 176° South 461 531 37,000  Level FlightAware Transoceanic
09:42AM 25.2217 -70.1336 176° South 463 533 37,000  Level Miami Center
09:43AM 24.6484 -70.0252 176° South 461 531 37,000  Level FlightAware Transoceanic
09:43AM 25.1136 -70.0961 163° South 463 533 37,000  Level Miami Center
09:44AM 24.5312 -70.0170 176° South 461 531 37,000 -120 Level FlightAware Transoceanic
09:44AM 24.9844 -70.0575 165° South 453 521 36,900  Descending Miami Center
09:45AM 24.4140 -70.0087 176° South 461 531 37,000 60 Climbing FlightAware Transoceanic
09:46AM 24.2968 -70.0005 176° South 461 531 37,000  Level FlightAware Transoceanic
09:46AM 24.7981 -70.0268 178° South  Level FlightAware Approximate
09:47AM 24.1796 -69.9923 176° South 461 531 37,000  Level FlightAware Transoceanic
09:47AM 24.6392 -70.0331 178° South 422 486 37,000  Level Miami Center
09:48AM 24.0624 -69.9842 176° South 461 531 37,000  Level FlightAware Transoceanic
09:48AM 24.5242 -70.0281 178° South 413 475 37,000  Level Miami Center
09:49AM 24.4117 -70.0297 181° South 419 482 37,000  Level Miami Center
09:50AM 24.2919 -70.0158 174° South 422 486 37,000  Level Miami Center
09:51AM 24.1836 -70.0194 182° South 417 480 37,000  Level Miami Center
09:52AM 24.0686 -70.0122 177° South 412 474 37,000  Level Miami Center
09:53AM 23.9531 -69.9981 174° South 417 480 37,000  Level Miami Center
09:54AM 23.8381 -69.9883 176° South 422 486 37,000  Level Miami Center
09:55AM 23.7228 -69.9811 177° South 422 486 37,000  Level Miami Center
09:56AM 23.6100 -69.9758 178° South 422 486 37,000  Level Miami Center
09:57AM 23.4928 -69.9664 176° South 422 486 37,000  Level Miami Center
09:58AM 23.3775 -69.9567 176° South 427 491 37,000  Level Miami Center
09:59AM 23.2622 -69.9450 175° South 421 484 37,000  Level Miami Center
10:00AM 23.1450 -69.9356 176° South 427 491 37,000  Level Miami Center
10:02AM 22.9568 -69.9193 175° South  Level FlightAware Approximate
10:03AM 22.7956 -69.9092 175° South 422 486 37,000  Level Miami Center
10:04AM 22.6783 -69.8997 176° South 427 491 37,000  Level Miami Center
10:05AM 22.5608 -69.8881 175° South 427 491 37,000  Level Miami Center
10:06AM 22.4417 -69.8811 177° South 427 491 37,000  Level Miami Center
10:08AM 22.2053 -69.8622 176° South 427 491 37,000  Level Miami Center
10:10AM 21.9689 -69.8433 176° South 427 491 37,000  Level Miami Center
10:11AM 21.8497 -69.8364 177° South 427 491 37,000  Level Miami Center
10:12AM 21.7261 -69.8250 175° South 432 497 37,000  Level Miami Center
10:14AM 21.5383 -69.8004 175° South  Level FlightAware Approximate
10:15AM 21.3831 -69.7983 175° South 427 491 37,000  Level Miami Center
10:16AM 21.2639 -69.7892 176° South 427 491 37,000  Level Miami Center
10:17AM 21.1447 -69.7797 176° South 427 491 37,000  Level Miami Center
10:18AM 21.0297 -69.7703 176° South 422 486 37,000  Level Miami Center
10:19AM 20.9083 -69.7611 176° South 428 493 37,000  Level Miami Center
10:20AM 20.7892 -69.7517 176° South 434 499 37,000  Level Miami Center
10:22AM 20.6011 -69.7349 175° South  Level FlightAware Approximate
10:22AM 20.5489 -69.7356 175° South 434 499 37,000  Level Miami Center
10:23AM 20.4297 -69.7239 175° South 439 505 37,000  Level Miami Center
10:24AM 20.3083 -69.7147 176° South 444 511 37,000  Level Miami Center
10:26AM 20.0703 -69.6983 176° South 438 504 37,000  Level Miami Center
10:28AM 19.8822 -69.6826 179° South  Level FlightAware Approximate
10:35AM 19.0733 -69.6738 179° South  Level FlightAware Approximate
10:36AM 18.9577 -69.6725 179° South  Level FlightAware Approximate
10:37AM 18.8422 -69.6713 179° South  Level FlightAware Approximate
10:38AM 18.7266 -69.6700 179° South  Level FlightAware Approximate
10:39AM 18.6111 -69.6688 179° South  Level FlightAware Approximate
10:40AM 18.4955 -69.6675 179° South  Level FlightAware Approximate
10:41AM 18.3804 -69.6728 189° South  Level FlightAware Approximate
10:42AM 18.2663 -69.6919 189° South  Level FlightAware Approximate
10:43AM 18.1522 -69.7110 189° South  Level FlightAware Approximate
10:44AM 18.0380 -69.7301 189° South  Level FlightAware Approximate
10:45AM 17.9239 -69.7491 189° South  Level FlightAware Approximate
10:46AM 17.8098 -69.7681 189° South  Level FlightAware Approximate
10:47AM 17.6956 -69.7871 189° South  Level FlightAware Approximate
10:48AM 17.5815 -69.8061 189° South  Level FlightAware Approximate
10:49AM 17.4674 -69.8251 189° South  Level FlightAware Approximate
10:50AM 17.3532 -69.8440 189° South  Level FlightAware Approximate
10:51AM 17.2391 -69.8629 189° South  Level FlightAware Approximate
10:52AM 17.1249 -69.8818 189° South  Level FlightAware Approximate
10:53AM 17.0108 -69.9007 189° South  Level FlightAware Approximate
10:54AM 16.8966 -69.9195 189° South  Level FlightAware Approximate
10:55AM 16.7825 -69.9383 189° South  Level FlightAware Approximate
10:56AM 16.6683 -69.9571 189° South  Level FlightAware Approximate
10:57AM 16.5542 -69.9759 189° South  Level FlightAware Approximate
10:58AM 16.4400 -69.9946 189° South  Level FlightAware Approximate
10:59AM 16.3259 -70.0133 189° South  Level FlightAware Approximate
11:00AM 16.2117 -70.0320 189° South  Level FlightAware Approximate
11:01AM 16.0975 -70.0507 189° South  Level FlightAware Approximate
11:02AM 15.9832 -70.0660 178° South  Level FlightAware Approximate
11:03AM 15.8677 -70.0612 178° South  Level FlightAware Approximate
11:04AM 15.7523 -70.0564 178° South  Level FlightAware Approximate
11:05AM 15.6368 -70.0517 178° South  Level FlightAware Approximate
11:06AM 15.5213 -70.0469 178° South  Level FlightAware Approximate
11:07AM 15.4059 -70.0422 178° South  Level FlightAware Approximate
11:08AM 15.2904 -70.0374 178° South  Level FlightAware Approximate
11:09AM 15.1749 -70.0327 178° South  Level FlightAware Approximate
11:10AM 15.0594 -70.0280 178° South  Level FlightAware Approximate
11:11AM 14.9440 -70.0232 178° South  Level FlightAware Approximate
11:12AM 14.8285 -70.0185 178° South  Level FlightAware Approximate
11:13AM 14.7130 -70.0167 180° South  Level FlightAware Approximate
11:14AM 14.5974 -70.0150 177° South  Level FlightAware Approximate
11:15AM 14.4820 -70.0095 177° South  Level FlightAware Approximate
11:16AM 14.3666 -70.0040 177° South  Level FlightAware Approximate
11:17AM 14.2511 -70.0000 180° South  Level FlightAware Approximate
11:18AM 14.1356 -69.9968 176° South  Level FlightAware Approximate
11:19AM 14.0203 -69.9891 176° South  Level FlightAware Approximate
11:20AM 13.9049 -69.9833 180° South  Level FlightAware Approximate
11:21AM 13.7894 -69.9833 180° South  Level FlightAware Approximate
11:22AM 13.6738 -69.9830 178° South  Level FlightAware Approximate
11:23AM 13.5583 -69.9789 178° South  Level FlightAware Approximate
11:24AM 13.4428 -69.9747 178° South  Level FlightAware Approximate
11:25AM 13.3273 -69.9706 178° South  Level FlightAware Approximate
11:26AM 13.2119 -69.9662 174° South  Level FlightAware Approximate
11:27AM 13.0968 -69.9547 174° South  Level FlightAware Approximate
11:28AM 12.9815 -69.9500 180° South  Level FlightAware Approximate
11:29AM 12.8659 -69.9500 180° South  Level FlightAware Approximate
11:30AM 12.7508 -69.9401 174° South  Level FlightAware Approximate
11:31AM 12.6356 -69.9333 180° South  Level FlightAware Approximate
11:32AM 12.5200 -69.9333 180° South  Level FlightAware Approximate
11:33AM 12.5000 -70.0167 270° West  Level FlightAware Approximate
11:34AM 12.5014 -70.0152 270° West  Level Estimated
11:35AM 12.5000 -70.0167 270° West  Level FlightAware Approximate
11:36AM 12.5014 -70.0152 270° West  Level Estimated
11:37AM 12.5000 -70.0167 270° West  Level FlightAware Approximate
11:38AM 12.5014 -70.0152 270° West  Level Estimated
11:39AM 12.5000 -70.0167 270° West  Level FlightAware Approximate
11:40AM 12.5014 -70.0152 270° West  Level Estimated
11:41AM 12.5000 -70.0167 270° West  Level FlightAware Approximate
11:42AM 12.5014 -70.0152 270° West  Level Estimated